Time;durP1;ratioP1;P1;durP2;ratioP2;P2;SDS_P1;SDS_P2;PMS_P1;PMS_P2;Temp;Humidity;BMP_temperature;BMP_pressure;BME280_temperature;BME280_humidity;BME280_pressure;Samples;Min_cycle;Max_cycle;Signal;HPM_P1;HPM_P2
2021/12/12 00:00:57;;;;;;;12.07;7.20;;;4.40;90.10;;;;;;5076098;28;20445;-70
2021/12/12 00:04:09;;;;;;;12.10;6.43;;;4.40;90.30;;;;;;5086312;28;20448;-71
2021/12/12 00:06:25;;;;;;;9.80;6.47;;;4.40;90.40;;;;;;5076188;28;20434;-72
2021/12/12 00:08:55;;;;;;;11.70;6.37;;;4.50;90.10;;;;;;5075332;28;20457;-71
2021/12/12 00:11:24;;;;;;;8.13;5.47;;;4.50;90.10;;;;;;5082678;28;20822;-70
2021/12/12 00:14:09;;;;;;;9.70;5.73;;;4.50;90.10;;;;;;5092164;28;20489;-72
2021/12/12 00:16:35;;;;;;;11.83;6.77;;;4.60;89.90;;;;;;5086100;28;20431;-72
2021/12/12 00:19:01;;;;;;;10.47;6.47;;;4.60;89.60;;;;;;5099232;28;20444;-73
2021/12/12 00:21:29;;;;;;;12.47;6.07;;;4.60;89.60;;;;;;5082932;28;20429;-71
2021/12/12 00:23:56;;;;;;;14.20;7.10;;;4.50;89.60;;;;;;5076729;28;20271;-72
2021/12/12 00:26:22;;;;;;;8.73;5.90;;;4.50;89.60;;;;;;5087072;28;20424;-69
2021/12/12 00:28:48;;;;;;;15.00;6.37;;;4.60;89.60;;;;;;5085858;28;20445;-71
2021/12/12 00:31:17;;;;;;;9.53;5.70;;;4.60;89.30;;;;;;5083382;28;20515;-70
2021/12/12 00:33:47;;;;;;;11.23;6.00;;;4.60;89.20;;;;;;5083638;28;20522;-71
2021/12/12 00:36:17;;;;;;;12.43;5.68;;;4.60;89.50;;;;;;5088889;28;20449;-72
2021/12/12 00:38:45;;;;;;;9.27;5.78;;;4.70;89.30;;;;;;5090339;28;20243;-72
2021/12/12 00:41:15;;;;;;;8.67;4.97;;;4.70;89.20;;;;;;5083046;28;20228;-71
2021/12/12 00:43:47;;;;;;;8.47;5.90;;;4.70;88.90;;;;;;5081310;28;20455;-72
2021/12/12 00:46:14;;;;;;;11.27;6.30;;;4.60;88.70;;;;;;5077117;28;20428;-72
2021/12/12 00:48:43;;;;;;;11.25;5.90;;;4.50;89.00;;;;;;5089723;28;20471;-72
2021/12/12 00:51:11;;;;;;;11.30;6.73;;;4.60;89.50;;;;;;5087729;28;20199;-72
2021/12/12 00:53:38;;;;;;;10.90;6.97;;;4.60;89.50;;;;;;5088658;28;20413;-72
2021/12/12 00:56:05;;;;;;;12.57;7.10;;;4.50;89.70;;;;;;5072980;28;20474;-71
2021/12/12 00:58:31;;;;;;;14.13;7.47;;;4.50;90.10;;;;;;5077519;28;20200;-72
2021/12/12 01:01:04;;;;;;;11.35;6.38;;;4.50;90.20;;;;;;5078085;28;20418;-73
2021/12/12 01:03:34;;;;;;;10.25;6.97;;;4.50;90.10;;;;;;5089834;28;20183;-72
2021/12/12 01:06:04;;;;;;;10.10;6.57;;;4.50;89.90;;;;;;5079701;28;20971;-72
2021/12/12 01:08:30;;;;;;;12.23;7.00;;;4.50;90.20;;;;;;5089234;28;20440;-71
2021/12/12 01:11:17;;;;;;;13.30;6.47;;;4.50;89.90;;;;;;5080112;28;20183;-71
2021/12/12 01:13:46;;;;;;;10.60;6.63;;;4.50;89.30;;;;;;5080112;28;20195;-72
2021/12/12 01:16:35;;;;;;;11.38;6.50;;;4.50;89.00;;;;;;5089461;28;20528;-72
2021/12/12 01:19:09;;;;;;;11.93;6.43;;;4.50;89.70;;;;;;5083588;28;20218;-72
2021/12/12 01:21:40;;;;;;;11.17;6.80;;;4.50;89.70;;;;;;5093225;28;20770;-73
2021/12/12 01:24:24;;;;;;;11.40;7.10;;;4.50;89.90;;;;;;5093059;28;20429;-72
2021/12/12 01:26:50;;;;;;;15.37;7.50;;;4.50;89.50;;;;;;5083150;28;20413;-71
2021/12/12 01:29:15;;;;;;;12.93;7.00;;;4.50;89.20;;;;;;5094920;28;20579;-72
2021/12/12 01:31:47;;;;;;;10.87;6.17;;;4.50;89.50;;;;;;5094114;28;20552;-71
2021/12/12 01:34:15;;;;;;;11.47;6.60;;;4.50;89.20;;;;;;5076061;28;20186;-72
2021/12/12 01:39:19;;;;;;;14.70;7.70;;;4.60;88.30;;;;;;5094442;28;20206;-71
2021/12/12 01:41:56;;;;;;;15.87;6.87;;;4.50;88.00;;;;;;5085878;28;20512;-73
2021/12/12 01:44:50;;;;;;;11.80;6.87;;;4.50;88.40;;;;;;5094674;28;20906;-72
2021/12/12 01:47:22;;;;;;;12.05;6.97;;;4.50;88.70;;;;;;5078753;28;20575;-72
2021/12/12 01:49:52;;;;;;;10.17;6.60;;;4.50;88.90;;;;;;5094147;28;20214;-71
2021/12/12 01:52:21;;;;;;;12.20;7.30;;;4.50;88.90;;;;;;5093949;28;20997;-72
2021/12/12 01:54:50;;;;;;;10.13;5.95;;;4.50;88.90;;;;;;5094670;28;20438;-72
2021/12/12 01:57:21;;;;;;;12.63;7.00;;;4.40;89.20;;;;;;5085287;28;20179;-71
2021/12/12 01:59:48;;;;;;;13.27;6.87;;;4.40;89.60;;;;;;5083117;28;20265;-75
2021/12/12 02:02:23;;;;;;;14.87;7.60;;;4.40;89.60;;;;;;5079450;28;20460;-71
2021/12/12 02:04:54;;;;;;;13.30;6.87;;;4.30;89.70;;;;;;5088514;28;20417;-72
2021/12/12 02:07:25;;;;;;;13.57;7.47;;;4.20;89.70;;;;;;5087650;28;20426;-71
2021/12/12 02:09:52;;;;;;;14.20;6.40;;;4.20;89.90;;;;;;5081221;28;20491;-73
2021/12/12 02:12:23;;;;;;;11.95;7.00;;;4.20;90.00;;;;;;5094689;28;20464;-72
2021/12/12 02:14:50;;;;;;;9.97;6.00;;;4.20;90.00;;;;;;5093353;28;20186;-72
2021/12/12 02:17:30;;;;;;;11.87;7.23;;;4.30;90.10;;;;;;5094917;28;20450;-71
2021/12/12 02:20:15;;;;;;;11.15;7.30;;;4.30;89.70;;;;;;5083949;28;20453;-72
2021/12/12 02:36:04;;;;;;;18.63;7.70;;;4.20;87.80;;;;;;5092734;28;20232;-71
2021/12/12 02:38:33;;;;;;;11.90;5.87;;;4.30;88.10;;;;;;5092987;28;20441;-72
2021/12/12 02:41:06;;;;;;;10.03;5.93;;;4.20;88.40;;;;;;5092229;28;20417;-71
2021/12/12 02:43:36;;;;;;;9.15;5.05;;;4.20;87.80;;;;;;5083959;28;20917;-71
2021/12/12 02:46:02;;;;;;;9.85;4.38;;;4.20;85.30;;;;;;5091699;28;20840;-72
2021/12/12 02:48:38;;;;;;;10.07;5.00;;;4.30;83.80;;;;;;5094309;28;20206;-72
2021/12/12 02:51:07;;;;;;;7.63;4.77;;;4.20;83.60;;;;;;5088279;28;20437;-73
2021/12/12 02:53:38;;;;;;;7.17;5.20;;;4.30;83.70;;;;;;5095580;28;20445;-72
2021/12/12 02:56:15;;;;;;;9.43;5.33;;;4.40;83.40;;;;;;5089194;28;20421;-71
2021/12/12 02:58:42;;;;;;;9.90;5.50;;;4.40;84.10;;;;;;5098444;28;20428;-73
2021/12/12 03:01:23;;;;;;;9.00;5.03;;;4.40;83.80;;;;;;5091277;28;20414;-72
2021/12/12 03:03:50;;;;;;;9.30;5.60;;;4.40;83.70;;;;;;5094368;28;20413;-72
2021/12/12 03:06:22;;;;;;;7.07;4.88;;;4.40;84.10;;;;;;5092453;28;20910;-72
2021/12/12 03:08:51;;;;;;;8.37;4.90;;;4.40;84.40;;;;;;5082473;28;20309;-73
2021/12/12 03:11:17;;;;;;;9.60;4.30;;;4.40;84.40;;;;;;5088701;28;20440;-72
2021/12/12 03:13:44;;;;;;;8.83;4.83;;;4.30;84.10;;;;;;5094119;28;20767;-72
2021/12/12 03:16:12;;;;;;;5.80;4.07;;;4.30;84.00;;;;;;5090359;28;20414;-72
2021/12/12 03:18:42;;;;;;;9.40;5.23;;;4.30;84.00;;;;;;5084433;28;20473;-72
2021/12/12 03:21:16;;;;;;;10.07;5.20;;;4.30;84.30;;;;;;5096033;28;20524;-71
2021/12/12 03:23:51;;;;;;;8.90;5.20;;;4.30;84.60;;;;;;5101736;28;20418;-72
2021/12/12 03:26:18;;;;;;;9.90;5.03;;;4.30;84.30;;;;;;5084349;28;20436;-72
2021/12/12 03:28:47;;;;;;;7.97;3.90;;;4.30;84.40;;;;;;5083625;28;20441;-72
2021/12/12 03:31:17;;;;;;;7.90;4.60;;;4.20;83.80;;;;;;5090891;28;20199;-72
2021/12/12 03:33:43;;;;;;;8.13;4.60;;;4.10;83.30;;;;;;5091768;28;20455;-72
2021/12/12 03:36:12;;;;;;;7.30;4.50;;;3.90;83.70;;;;;;5090457;28;20417;-72
2021/12/12 03:38:42;;;;;;;7.87;4.70;;;3.90;84.40;;;;;;5090285;28;20943;-72
2021/12/12 03:41:12;;;;;;;11.95;5.35;;;3.90;84.60;;;;;;5083907;28;20506;-72
2021/12/12 03:43:38;;;;;;;13.80;5.60;;;3.80;84.90;;;;;;5091252;28;20200;-72
2021/12/12 03:46:10;;;;;;;8.33;5.20;;;3.70;85.60;;;;;;5086162;28;20425;-72
2021/12/12 03:48:38;;;;;;;7.38;4.13;;;3.70;86.20;;;;;;5077641;28;20441;-72
2021/12/12 03:51:06;;;;;;;10.50;5.78;;;3.80;86.60;;;;;;5090341;28;20228;-72
2021/12/12 03:53:34;;;;;;;12.23;5.27;;;3.80;86.90;;;;;;5090744;28;20187;-72
2021/12/12 03:56:00;;;;;;;9.23;5.70;;;3.80;87.40;;;;;;5091207;28;20422;-72
2021/12/12 03:58:26;;;;;;;13.10;6.03;;;3.80;88.00;;;;;;5084868;28;20200;-72
2021/12/12 04:00:57;;;;;;;8.10;4.93;;;3.80;88.30;;;;;;5074329;28;20446;-72
2021/12/12 04:03:23;;;;;;;10.80;6.23;;;3.80;88.70;;;;;;5086631;28;20433;-73
2021/12/12 04:06:01;;;;;;;10.15;5.80;;;3.80;89.30;;;;;;5090139;28;20417;-71
2021/12/12 04:08:36;;;;;;;10.80;5.55;;;3.70;89.70;;;;;;5090368;28;20230;-72
2021/12/12 04:11:04;;;;;;;8.33;5.30;;;3.60;90.20;;;;;;5089617;28;20564;-72
2021/12/12 04:13:30;;;;;;;11.93;6.38;;;3.50;90.30;;;;;;5080372;28;20433;-71
2021/12/12 04:15:56;;;;;;;10.13;4.50;;;3.50;90.40;;;;;;5086441;28;20179;-72
2021/12/12 04:18:24;;;;;;;9.23;4.90;;;3.50;90.30;;;;;;5090762;28;20453;-72
2021/12/12 04:20:50;;;;;;;10.50;5.20;;;3.40;90.20;;;;;;5090225;28;20483;-71
2021/12/12 04:23:23;;;;;;;12.27;6.90;;;3.30;90.40;;;;;;5087934;28;20421;-72
2021/12/12 04:25:49;;;;;;;17.02;7.80;;;3.20;90.60;;;;;;5079389;28;20433;-71
2021/12/12 04:28:16;;;;;;;13.70;5.82;;;3.10;90.70;;;;;;5082663;28;20199;-72
2021/12/12 04:30:43;;;;;;;14.15;6.72;;;3.00;90.80;;;;;;5090784;28;20179;-72
2021/12/12 04:33:09;;;;;;;17.42;6.25;;;2.90;91.00;;;;;;5090565;28;20199;-73
2021/12/12 04:35:35;;;;;;;12.43;6.75;;;2.90;91.00;;;;;;5090737;28;20186;-71
2021/12/12 04:38:03;;;;;;;12.63;6.22;;;2.80;91.00;;;;;;5085216;28;20182;-72
2021/12/12 04:40:32;;;;;;;10.20;5.50;;;2.70;91.10;;;;;;5084179;28;20187;-71
2021/12/12 04:42:58;;;;;;;15.75;5.90;;;2.70;91.10;;;;;;5090782;28;20270;-71
2021/12/12 04:45:52;;;;;;;13.70;5.65;;;2.70;91.20;;;;;;5090604;28;20183;-70
2021/12/12 04:51:25;;;;;;;11.88;6.40;;;2.60;91.60;;;;;;5083084;28;20282;-71
2021/12/12 04:53:56;;;;;;;11.73;5.95;;;2.50;91.70;;;;;;5088789;28;20179;-72
2021/12/12 04:56:47;;;;;;;9.35;5.65;;;2.40;91.80;;;;;;5090596;28;20183;-72
2021/12/12 04:59:12;;;;;;;15.70;5.97;;;2.40;92.10;;;;;;5077986;28;20209;-72
2021/12/12 05:02:10;;;;;;;19.33;5.20;;;2.30;92.60;;;;;;5087129;28;20186;-72
2021/12/12 05:04:54;;;;;;;8.25;5.13;;;2.30;93.00;;;;;;5071587;28;20231;-72
2021/12/12 05:07:22;;;;;;;9.45;5.15;;;2.20;93.30;;;;;;5089034;28;20665;-71
2021/12/12 05:09:53;;;;;;;9.48;5.43;;;2.20;93.50;;;;;;5088203;28;21858;-72
2021/12/12 05:12:30;;;;;;;9.25;5.43;;;2.20;93.50;;;;;;5088317;28;20214;-71
2021/12/12 05:15:36;;;;;;;12.15;6.40;;;2.10;93.60;;;;;;5082339;28;20195;-72
2021/12/12 05:18:11;;;;;;;10.07;5.30;;;2.00;93.70;;;;;;5066169;28;20205;-72
2021/12/12 05:20:44;;;;;;;7.75;4.93;;;2.00;93.80;;;;;;5087405;28;20183;-71
2021/12/12 05:23:18;;;;;;;11.13;6.13;;;2.00;93.90;;;;;;5088347;28;20191;-72
2021/12/12 05:25:51;;;;;;;17.30;5.72;;;2.00;93.90;;;;;;5070847;28;20211;-71
2021/12/12 05:28:19;;;;;;;10.50;5.68;;;2.00;93.90;;;;;;5087821;28;20211;-71
2021/12/12 05:30:47;;;;;;;8.15;5.10;;;2.00;93.80;;;;;;5087412;28;20217;-70
2021/12/12 05:33:14;;;;;;;10.38;4.43;;;2.00;93.90;;;;;;5090256;28;20206;-71
2021/12/12 05:35:42;;;;;;;10.27;4.78;;;2.10;93.60;;;;;;5089940;28;20195;-72
2021/12/12 05:38:09;;;;;;;8.93;4.55;;;2.20;93.10;;;;;;5064226;28;20211;-72
2021/12/12 05:40:37;;;;;;;9.95;4.90;;;2.30;92.50;;;;;;5079650;28;20552;-72
2021/12/12 05:43:05;;;;;;;9.65;5.28;;;2.40;92.00;;;;;;5079349;28;20562;-72
2021/12/12 05:45:32;;;;;;;10.13;4.85;;;2.40;91.60;;;;;;5082913;28;20197;-71
2021/12/12 05:47:59;;;;;;;9.20;4.70;;;2.50;91.10;;;;;;5079318;28;20599;-72
2021/12/12 05:50:26;;;;;;;7.18;4.80;;;2.60;90.70;;;;;;5074800;28;20219;-71
2021/12/12 05:52:54;;;;;;;8.40;4.50;;;2.60;90.40;;;;;;5088958;28;20207;-70
2021/12/12 05:55:22;;;;;;;7.28;4.05;;;2.60;90.10;;;;;;5089835;28;20293;-71
2021/12/12 05:57:54;;;;;;;8.23;4.30;;;2.70;89.90;;;;;;5090288;28;20190;-72
2021/12/12 06:00:24;;;;;;;8.90;5.25;;;2.70;89.60;;;;;;5091291;28;20241;-71
2021/12/12 06:02:50;;;;;;;9.82;4.40;;;2.70;89.50;;;;;;5086730;28;20617;-71
2021/12/12 06:05:16;;;;;;;10.10;4.97;;;2.70;89.50;;;;;;5093598;28;20187;-72
2021/12/12 06:07:42;;;;;;;7.40;4.50;;;2.70;89.30;;;;;;5086745;28;20182;-71
2021/12/12 06:10:12;;;;;;;7.18;4.30;;;2.70;89.20;;;;;;5093661;28;20459;-71
2021/12/12 06:12:39;;;;;;;7.55;5.25;;;2.70;89.30;;;;;;5080050;28;20218;-71
2021/12/12 06:15:08;;;;;;;7.78;5.10;;;2.70;89.30;;;;;;5085619;28;20218;-70
2021/12/12 06:17:35;;;;;;;7.20;4.22;;;2.80;89.20;;;;;;5095410;28;20552;-71
2021/12/12 06:20:03;;;;;;;6.80;4.00;;;2.80;89.00;;;;;;5099793;28;20207;-72
2021/12/12 06:22:29;;;;;;;7.40;4.20;;;2.80;89.00;;;;;;5086351;28;20183;-72
2021/12/12 06:24:55;;;;;;;9.30;5.75;;;2.80;89.20;;;;;;5087154;28;20263;-72
2021/12/12 06:27:21;;;;;;;9.20;5.00;;;2.80;89.20;;;;;;5100417;28;20183;-72
2021/12/12 06:29:50;;;;;;;9.15;5.28;;;2.70;89.50;;;;;;5097976;28;20203;-70
2021/12/12 06:32:16;;;;;;;13.23;6.00;;;2.70;89.60;;;;;;5090091;28;20890;-71
2021/12/12 06:34:42;;;;;;;11.88;5.35;;;2.70;90.00;;;;;;5080565;28;20214;-71
2021/12/12 06:37:08;;;;;;;9.85;5.55;;;2.60;90.30;;;;;;5093843;28;20176;-72
2021/12/12 06:39:34;;;;;;;10.38;5.78;;;2.40;90.60;;;;;;5081170;28;20265;-72
2021/12/12 06:42:03;;;;;;;12.60;6.27;;;2.30;91.00;;;;;;5081704;28;20653;-72
2021/12/12 06:44:28;;;;;;;11.40;6.07;;;2.30;91.40;;;;;;5095630;28;20515;-71
2021/12/12 06:46:55;;;;;;;9.87;6.17;;;2.20;91.50;;;;;;5093653;28;20214;-72
2021/12/12 06:49:23;;;;;;;9.45;5.57;;;2.10;91.80;;;;;;5104052;28;20441;-71
2021/12/12 06:51:57;;;;;;;11.30;5.63;;;2.00;92.20;;;;;;5098871;28;20261;-72
2021/12/12 06:54:26;;;;;;;10.40;5.82;;;2.00;92.40;;;;;;5097659;28;20237;-72
2021/12/12 06:56:54;;;;;;;13.40;6.30;;;2.00;92.60;;;;;;5096307;28;20175;-73
2021/12/12 06:59:26;;;;;;;9.77;5.20;;;1.90;92.70;;;;;;5096581;28;20207;-71
2021/12/12 07:01:52;;;;;;;11.38;5.82;;;1.90;92.90;;;;;;5104587;28;20504;-71
2021/12/12 07:04:19;;;;;;;10.32;5.78;;;1.90;93.10;;;;;;5097552;28;20176;-72
2021/12/12 07:06:46;;;;;;;9.30;5.85;;;1.90;93.20;;;;;;5096428;28;20187;-72
2021/12/12 07:09:13;;;;;;;13.20;6.18;;;1.90;93.20;;;;;;5103474;28;20497;-71
2021/12/12 07:11:40;;;;;;;10.07;5.53;;;1.90;93.20;;;;;;5102837;28;20203;-72
2021/12/12 07:14:07;;;;;;;9.48;5.55;;;1.90;93.30;;;;;;5094852;28;20192;-71
2021/12/12 07:16:33;;;;;;;11.13;6.95;;;1.90;93.30;;;;;;5086726;28;20233;-71
2021/12/12 07:19:01;;;;;;;15.47;5.63;;;1.90;93.60;;;;;;5079367;28;20206;-72
2021/12/12 07:21:30;;;;;;;14.63;6.95;;;1.80;93.60;;;;;;5077416;28;20425;-72
2021/12/12 07:23:58;;;;;;;8.20;5.28;;;1.80;93.80;;;;;;5086113;28;20211;-71
2021/12/12 07:26:25;;;;;;;9.32;5.88;;;1.80;93.90;;;;;;5089847;28;20187;-72
2021/12/12 07:28:53;;;;;;;12.90;6.47;;;1.90;94.00;;;;;;5089327;28;20191;-72
2021/12/12 07:31:29;;;;;;;12.25;5.63;;;1.80;94.00;;;;;;5089819;28;20231;-70
2021/12/12 07:33:58;;;;;;;13.88;6.35;;;1.90;93.90;;;;;;5092312;28;20178;-72
2021/12/12 07:36:25;;;;;;;10.05;5.78;;;1.90;93.70;;;;;;5091968;28;20239;-72
2021/12/12 07:38:57;;;;;;;13.05;6.65;;;2.00;93.30;;;;;;5086453;28;20202;-71
2021/12/12 07:41:29;;;;;;;11.93;5.70;;;2.00;93.00;;;;;;5093797;28;20190;-70
2021/12/12 07:43:56;;;;;;;11.10;6.38;;;2.00;92.70;;;;;;5084664;28;20179;-71
2021/12/12 07:46:22;;;;;;;9.50;6.10;;;2.10;92.50;;;;;;5087234;28;20176;-71
2021/12/12 07:48:50;;;;;;;8.77;5.27;;;2.20;92.20;;;;;;5092092;28;20211;-72
2021/12/12 07:51:17;;;;;;;13.55;6.03;;;2.20;91.80;;;;;;5089573;28;20445;-74
2021/12/12 07:53:43;;;;;;;8.90;5.30;;;2.30;91.40;;;;;;5098020;28;20708;-72
2021/12/12 07:56:09;;;;;;;9.95;5.25;;;2.40;91.30;;;;;;5089188;28;20887;-72
2021/12/12 07:58:36;;;;;;;9.80;5.67;;;2.40;91.00;;;;;;5100755;28;20211;-71
2021/12/12 08:01:03;;;;;;;10.27;5.45;;;2.50;90.70;;;;;;5090713;28;20457;-71
2021/12/12 08:03:36;;;;;;;11.93;5.80;;;2.60;90.40;;;;;;5082965;28;20187;-71
2021/12/12 08:06:04;;;;;;;8.65;4.93;;;2.60;90.10;;;;;;5083714;28;20179;-70
2021/12/12 08:08:31;;;;;;;9.80;4.43;;;2.70;89.70;;;;;;5096077;28;20227;-72
2021/12/12 08:10:58;;;;;;;9.27;5.63;;;2.70;89.60;;;;;;5079137;28;20184;-72
2021/12/12 08:13:24;;;;;;;7.15;4.78;;;2.80;89.50;;;;;;5090497;28;20210;-72
2021/12/12 08:15:51;;;;;;;9.43;5.53;;;2.80;88.90;;;;;;5088707;28;20175;-71
2021/12/12 08:18:18;;;;;;;7.47;4.72;;;2.80;88.60;;;;;;5099749;28;20195;-70
2021/12/12 08:20:47;;;;;;;6.57;4.40;;;2.90;88.30;;;;;;5077929;28;20186;-72
2021/12/12 08:23:15;;;;;;;11.10;4.70;;;3.00;88.30;;;;;;5096106;28;20216;-73
2021/12/12 08:25:42;;;;;;;10.18;4.47;;;3.00;88.10;;;;;;5094857;28;20598;-72
2021/12/12 08:28:09;;;;;;;7.70;4.47;;;3.10;87.70;;;;;;5096427;28;20221;-74
2021/12/12 08:30:36;;;;;;;9.48;4.72;;;3.20;87.30;;;;;;5083330;28;20278;-72
2021/12/12 08:33:05;;;;;;;9.38;4.70;;;3.20;87.00;;;;;;5094191;28;20237;-71
2021/12/12 08:35:31;;;;;;;7.55;4.50;;;3.30;86.90;;;;;;5096607;28;20180;-70
2021/12/12 08:37:59;;;;;;;8.23;4.63;;;3.30;86.20;;;;;;5096837;28;20179;-72
2021/12/12 08:40:30;;;;;;;7.80;4.45;;;3.40;85.90;;;;;;5096627;28;20429;-73
2021/12/12 08:42:57;;;;;;;6.23;3.80;;;3.40;85.50;;;;;;5077762;28;20190;-72
2021/12/12 08:45:34;;;;;;;5.25;4.00;;;3.40;85.30;;;;;;5088300;28;20445;-73
2021/12/12 08:48:02;;;;;;;7.25;4.90;;;3.40;85.30;;;;;;5079207;28;20224;-72
2021/12/12 08:50:32;;;;;;;6.47;3.95;;;3.50;85.20;;;;;;5090145;28;20336;-71
2021/12/12 08:52:59;;;;;;;6.25;3.45;;;3.50;84.70;;;;;;5076746;28;20239;-71
2021/12/12 08:55:33;;;;;;;8.70;3.85;;;3.60;83.60;;;;;;5074941;28;20705;-71
2021/12/12 08:58:14;;;;;;;6.95;4.25;;;3.60;83.70;;;;;;5082543;28;20182;-71
2021/12/12 09:00:44;;;;;;;6.00;3.38;;;3.60;84.00;;;;;;5075451;28;20664;-71
2021/12/12 09:03:14;;;;;;;5.82;3.20;;;3.60;83.30;;;;;;5072210;28;20188;-72
2021/12/12 09:05:42;;;;;;;8.30;4.03;;;3.50;83.40;;;;;;5080291;28;20190;-70
2021/12/12 09:08:12;;;;;;;5.53;3.55;;;3.50;83.80;;;;;;5089504;28;20259;-71
2021/12/12 09:10:43;;;;;;;5.03;3.67;;;3.50;84.00;;;;;;5080947;28;20645;-72
2021/12/12 09:13:58;;;;;;;8.02;4.30;;;3.60;83.00;;;;;;5079359;28;20206;-72
2021/12/12 09:16:37;;;;;;;7.10;3.83;;;3.60;83.30;;;;;;5081687;28;20196;-72
2021/12/12 09:19:14;;;;;;;7.68;4.13;;;3.70;83.10;;;;;;5088026;28;20285;-73
2021/12/12 09:21:51;;;;;;;5.97;3.50;;;3.70;82.20;;;;;;5090710;28;20187;-73
2021/12/12 09:24:46;;;;;;;7.00;3.33;;;3.70;82.50;;;;;;5085442;28;20866;-72
2021/12/12 09:27:44;;;;;;;8.90;4.35;;;3.80;82.40;;;;;;5078722;28;20692;-71
2021/12/12 09:30:27;;;;;;;6.40;3.33;;;3.80;82.50;;;;;;5081959;28;20203;-71
2021/12/12 09:33:00;;;;;;;6.80;3.73;;;4.00;81.90;;;;;;5090454;28;20468;-72
2021/12/12 09:35:59;;;;;;;5.93;3.70;;;4.00;81.50;;;;;;5084711;28;20455;-72
2021/12/12 09:38:44;;;;;;;7.68;4.22;;;4.10;80.00;;;;;;5089016;28;20540;-71
2021/12/12 09:41:17;;;;;;;4.30;3.10;;;4.10;79.90;;;;;;5092283;28;20179;-73
2021/12/12 09:44:14;;;;;;;6.70;3.70;;;4.20;79.60;;;;;;5093434;28;20444;-70
2021/12/12 09:47:25;;;;;;;4.50;3.25;;;4.20;79.20;;;;;;5083745;28;20463;-72
2021/12/12 09:53:24;;;;;;;5.40;3.37;;;4.20;79.60;;;;;;5081737;28;20298;-71
2021/12/12 09:56:17;;;;;;;6.33;3.30;;;4.30;79.50;;;;;;5075775;28;20424;-72
2021/12/12 09:59:08;;;;;;;6.43;3.40;;;4.40;78.90;;;;;;5089048;28;20459;-70
2021/12/12 10:01:41;;;;;;;4.40;2.97;;;4.50;78.60;;;;;;5087306;28;20412;-70
2021/12/12 10:04:51;;;;;;;6.27;4.20;;;4.50;77.70;;;;;;5091958;28;20481;-70
2021/12/12 10:07:43;;;;;;;5.67;3.43;;;4.60;77.80;;;;;;5090724;28;20490;-71
2021/12/12 10:10:18;;;;;;;4.90;3.10;;;4.50;77.80;;;;;;5084957;28;20437;-70
2021/12/12 10:12:54;;;;;;;8.17;3.77;;;4.70;77.70;;;;;;5090997;28;20452;-71
2021/12/12 10:15:23;;;;;;;5.77;3.27;;;4.70;77.10;;;;;;5077943;28;20444;-73
2021/12/12 10:18:18;;;;;;;4.23;2.93;;;4.80;77.10;;;;;;5086462;28;20422;-72
2021/12/12 10:21:01;;;;;;;4.90;2.73;;;4.80;76.70;;;;;;5084897;28;20434;-71
2021/12/12 10:23:57;;;;;;;3.90;2.47;;;4.90;76.10;;;;;;5086980;28;20523;-71
2021/12/12 10:26:40;;;;;;;3.30;2.90;;;5.10;76.10;;;;;;5090913;28;20562;-72
2021/12/12 10:29:13;;;;;;;4.10;2.80;;;5.20;75.70;;;;;;5078547;28;20592;-70
2021/12/12 10:31:46;;;;;;;4.07;2.73;;;5.30;74.60;;;;;;5075870;28;20464;-71
2021/12/12 10:34:20;;;;;;;6.50;3.70;;;5.30;74.20;;;;;;5072377;28;20906;-72
2021/12/12 10:37:06;;;;;;;4.17;2.83;;;5.30;73.90;;;;;;5088869;28;20412;-71
2021/12/12 10:39:34;;;;;;;5.30;2.93;;;5.30;74.00;;;;;;5081487;28;20452;-70
2021/12/12 10:42:23;;;;;;;6.43;4.10;;;5.20;73.90;;;;;;5085584;28;20450;-72
2021/12/12 10:44:58;;;;;;;8.80;4.13;;;5.20;74.30;;;;;;5076206;28;20453;-72
2021/12/12 10:47:44;;;;;;;4.50;2.80;;;5.30;74.30;;;;;;5086308;28;20440;-69
2021/12/12 10:50:27;;;;;;;7.43;3.10;;;5.40;74.00;;;;;;5082888;28;20445;-72
2021/12/12 10:53:10;;;;;;;8.33;4.10;;;5.40;73.90;;;;;;5075314;28;20506;-73
2021/12/12 10:55:38;;;;;;;7.17;3.80;;;5.50;73.70;;;;;;5082581;28;20421;-72
2021/12/12 10:58:04;;;;;;;9.17;4.60;;;5.60;73.90;;;;;;5090114;28;20938;-71
2021/12/12 11:00:34;;;;;;;4.47;2.90;;;5.60;73.90;;;;;;5077006;28;20437;-72
2021/12/12 11:03:01;;;;;;;5.03;3.70;;;5.60;73.30;;;;;;5085706;28;20198;-72
2021/12/12 11:05:41;;;;;;;4.70;3.10;;;5.70;73.60;;;;;;5087200;28;20429;-71
2021/12/12 11:08:43;;;;;;;4.80;3.10;;;5.80;73.20;;;;;;5071224;28;20457;-71
2021/12/12 11:11:23;;;;;;;5.30;3.30;;;5.80;73.00;;;;;;5080054;28;20444;-71
2021/12/12 11:14:14;;;;;;;4.80;2.77;;;5.90;72.40;;;;;;5086763;28;20510;-72
2021/12/12 11:16:49;;;;;;;6.10;2.77;;;5.90;72.10;;;;;;5081082;28;20441;-71
2021/12/12 11:19:35;;;;;;;4.13;2.53;;;6.00;72.10;;;;;;5070456;28;20525;-71
2021/12/12 11:22:12;;;;;;;3.83;2.50;;;6.00;72.10;;;;;;5064502;28;21123;-71
2021/12/12 11:24:43;;;;;;;4.77;2.80;;;6.10;72.00;;;;;;5089210;28;21124;-71
2021/12/12 11:27:15;;;;;;;4.47;2.97;;;6.10;71.40;;;;;;5086399;28;20429;-71
2021/12/12 11:29:52;;;;;;;4.73;2.63;;;6.10;72.30;;;;;;5085652;28;20994;-70
2021/12/12 11:32:24;;;;;;;3.90;2.97;;;6.10;72.40;;;;;;5086302;28;20477;-71
2021/12/12 11:34:53;;;;;;;5.27;3.00;;;6.10;72.40;;;;;;5086453;28;20928;-70
2021/12/12 11:37:39;;;;;;;3.80;2.50;;;6.10;72.70;;;;;;5086537;28;20971;-72
2021/12/12 11:40:20;;;;;;;3.97;2.40;;;6.10;72.40;;;;;;5068691;28;20974;-71
2021/12/12 11:42:53;;;;;;;5.53;2.97;;;6.20;72.40;;;;;;5086339;28;20420;-72
2021/12/12 11:45:40;;;;;;;5.10;3.00;;;6.30;72.30;;;;;;5085825;28;20425;-72
2021/12/12 11:48:40;;;;;;;4.70;2.40;;;6.30;72.30;;;;;;5083343;28;20484;-71
2021/12/12 11:51:17;;;;;;;7.70;3.80;;;6.30;72.10;;;;;;5070754;28;20940;-73
2021/12/12 11:53:52;;;;;;;3.50;2.73;;;6.40;72.10;;;;;;5084054;28;20499;-73
2021/12/12 11:56:34;;;;;;;3.67;2.53;;;6.40;71.80;;;;;;5077140;28;20425;-73
2021/12/12 11:59:07;;;;;;;4.60;2.57;;;6.40;71.70;;;;;;5082356;28;20644;-71
2021/12/12 12:01:51;;;;;;;5.20;3.13;;;6.40;71.80;;;;;;5086299;28;20429;-71
2021/12/12 12:04:37;;;;;;;9.33;2.80;;;6.40;71.70;;;;;;5088916;28;20467;-71
2021/12/12 12:07:12;;;;;;;4.80;2.57;;;6.40;72.00;;;;;;5082192;28;20451;-72
2021/12/12 12:09:37;;;;;;;5.13;2.90;;;6.50;71.40;;;;;;5098173;28;20448;-72
2021/12/12 12:12:48;;;;;;;5.83;2.40;;;6.60;71.30;;;;;;5093073;28;20462;-73
2021/12/12 12:15:17;;;;;;;8.93;2.50;;;6.60;71.30;;;;;;5077412;28;20200;-73
2021/12/12 12:18:40;;;;;;;4.00;2.67;;;6.60;70.80;;;;;;5081392;28;20418;-72
2021/12/12 12:21:18;;;;;;;4.30;3.03;;;6.70;70.40;;;;;;5083665;28;20522;-72
2021/12/12 12:26:51;;;;;;;4.20;2.50;;;6.50;69.80;;;;;;5090458;28;20429;-71
2021/12/12 12:29:33;;;;;;;7.13;2.47;;;6.60;70.20;;;;;;5074905;28;20536;-70
2021/12/12 12:32:04;;;;;;;3.80;2.63;;;6.80;69.90;;;;;;5094342;28;20492;-74
2021/12/12 12:34:54;;;;;;;2.90;2.27;;;6.90;69.20;;;;;;5089836;28;20426;-70
2021/12/12 12:37:58;;;;;;;5.90;3.77;;;7.00;68.60;;;;;;5085661;28;20472;-73
2021/12/12 12:40:43;;;;;;;2.50;2.33;;;7.00;67.70;;;;;;5085037;28;20471;-73
2021/12/12 12:43:46;;;;;;;5.90;2.90;;;6.90;67.50;;;;;;5025036;28;20432;-74
2021/12/12 12:47:05;;;;;;;3.00;2.33;;;6.70;68.00;;;;;;5062690;28;20541;-71
2021/12/12 12:50:07;;;;;;;4.37;2.60;;;6.70;68.60;;;;;;5002341;28;20483;-74
2021/12/12 12:52:48;;;;;;;5.70;2.77;;;6.80;68.00;;;;;;5087357;28;20884;-72
2021/12/12 12:55:54;;;;;;;3.23;1.90;;;6.70;68.50;;;;;;5083277;28;20430;-73
2021/12/12 12:58:35;;;;;;;3.90;2.73;;;6.60;68.30;;;;;;5080830;28;20446;-73
2021/12/12 13:01:50;;;;;;;7.13;3.43;;;6.60;68.80;;;;;;5087711;28;20420;-73
2021/12/12 13:04:26;;;;;;;6.93;4.07;;;6.60;69.20;;;;;;5071473;28;20421;-70
2021/12/12 13:07:14;;;;;;;3.73;2.60;;;6.70;69.40;;;;;;5087673;28;20408;-72
2021/12/12 13:10:07;;;;;;;3.40;2.40;;;6.80;68.90;;;;;;5090553;28;20814;-72
2021/12/12 13:13:10;;;;;;;7.53;2.90;;;6.90;68.60;;;;;;5092184;28;20465;-72
2021/12/12 13:15:47;;;;;;;4.17;2.33;;;7.00;68.60;;;;;;5081909;28;20422;-73
2021/12/12 13:18:34;;;;;;;2.83;2.40;;;7.10;68.30;;;;;;5078347;28;20517;-72
2021/12/12 13:21:25;;;;;;;4.80;2.67;;;7.10;68.50;;;;;;5079061;28;20424;-72
2021/12/12 13:24:33;;;;;;;3.17;2.30;;;7.10;68.30;;;;;;5089389;28;20428;-72
2021/12/12 13:27:25;;;;;;;5.30;3.10;;;7.00;68.50;;;;;;5082989;28;20417;-72
2021/12/12 13:30:30;;;;;;;5.50;2.57;;;6.90;68.50;;;;;;5092258;28;20946;-73
2021/12/12 13:33:09;;;;;;;4.70;3.00;;;6.80;69.20;;;;;;5091364;28;20982;-71
2021/12/12 13:35:39;;;;;;;5.17;2.83;;;6.80;69.40;;;;;;5091594;28;20477;-71
2021/12/12 13:38:22;;;;;;;8.47;3.50;;;6.70;69.50;;;;;;5087536;28;20913;-71
2021/12/12 13:41:05;;;;;;;5.77;3.10;;;6.70;69.50;;;;;;5076828;28;20414;-73
2021/12/12 13:44:05;;;;;;;11.97;5.30;;;6.70;69.70;;;;;;5075445;28;20427;-73
2021/12/12 13:47:03;;;;;;;6.80;3.87;;;6.70;69.80;;;;;;5072088;28;20422;-73
2021/12/12 13:49:35;;;;;;;4.10;2.83;;;6.70;69.70;;;;;;5078076;28;20947;-71
2021/12/12 13:52:13;;;;;;;7.53;3.17;;;6.80;69.80;;;;;;5090959;28;20483;-72
2021/12/12 13:54:58;;;;;;;3.60;2.30;;;6.80;69.70;;;;;;5089214;28;20428;-71
2021/12/12 13:57:46;;;;;;;5.77;2.60;;;6.80;69.70;;;;;;5077474;28;20450;-72